Time;durP1;ratioP1;P1;durP2;ratioP2;P2;SDS_P1;SDS_P2;PMS_P1;PMS_P2;Temp;Humidity;BMP_temperature;BMP_pressure;BME280_temperature;BME280_humidity;BME280_pressure;Samples;Min_cycle;Max_cycle;Signal;HPM_P1;HPM_P2
2022/03/08 00:00:40;;;;;;;18.90;10.15;;;;;;;1.35;56.62;100654.69;4973157;28;20027;-61
2022/03/08 00:03:06;;;;;;;21.35;10.63;;;;;;;1.22;56.01;100647.47;4972414;28;20065;-61
2022/03/08 00:05:31;;;;;;;16.80;9.40;;;;;;;1.24;57.02;100641.41;4971991;28;20082;-61
2022/03/08 00:07:58;;;;;;;19.42;9.40;;;;;;;1.29;56.29;100638.84;4955659;28;20033;-61
2022/03/08 00:10:25;;;;;;;19.23;9.75;;;;;;;1.28;56.95;100647.59;4971921;28;20031;-60
2022/03/08 00:12:51;;;;;;;17.55;8.82;;;;;;;1.09;56.71;100651.66;4971969;28;20031;-61
2022/03/08 00:15:19;;;;;;;18.80;9.93;;;;;;;1.04;58.34;100641.97;4972574;28;20390;-61
2022/03/08 00:17:45;;;;;;;19.45;9.32;;;;;;;1.06;58.92;100645.50;4971886;28;20105;-61
2022/03/08 00:20:12;;;;;;;18.88;10.57;;;;;;;0.99;59.68;100644.53;4987083;28;20150;-61
2022/03/08 00:22:38;;;;;;;18.75;9.13;;;;;;;0.77;60.51;100615.38;4972049;28;20449;-61
2022/03/08 00:25:05;;;;;;;21.23;10.30;;;;;;;1.00;60.16;100634.94;4987140;28;20030;-60
2022/03/08 00:27:31;;;;;;;17.02;9.05;;;;;;;1.07;60.72;100636.81;4972297;28;20055;-60
2022/03/08 00:29:57;;;;;;;20.35;9.98;;;;;;;1.05;60.26;100634.16;4972465;28;20034;-60
2022/03/08 00:32:23;;;;;;;17.35;9.32;;;;;;;1.03;59.54;100634.97;4972087;28;20034;-61
2022/03/08 00:34:49;;;;;;;22.27;10.52;;;;;;;1.01;60.55;100641.94;4972513;28;20031;-61
2022/03/08 00:37:14;;;;;;;20.05;10.10;;;;;;;0.87;60.77;100638.22;4972331;28;20389;-61
2022/03/08 00:39:40;;;;;;;17.10;10.15;;;;;;;0.85;61.25;100639.94;4972162;28;20035;-61
2022/03/08 00:42:11;;;;;;;19.05;9.10;;;;;;;0.80;62.11;100641.59;4971756;28;20078;-61
2022/03/08 00:44:44;;;;;;;19.48;9.20;;;;;;;0.87;62.04;100638.22;4972521;28;20077;-61
2022/03/08 00:47:10;;;;;;;18.95;10.23;;;;;;;0.86;62.04;100632.09;4972167;28;20026;-61
2022/03/08 00:49:37;;;;;;;19.77;10.52;;;;;;;0.80;63.88;100634.63;4971748;28;20065;-61
2022/03/08 00:52:03;;;;;;;21.65;9.98;;;;;;;0.75;64.04;100628.44;4971501;28;20023;-61
2022/03/08 00:54:29;;;;;;;20.88;10.68;;;;;;;0.67;64.33;100630.06;4972098;28;20078;-61
2022/03/08 00:56:54;;;;;;;18.83;10.63;;;;;;;0.67;65.49;100624.81;4970796;28;20430;-61
2022/03/08 00:59:20;;;;;;;21.27;9.38;;;;;;;0.61;65.80;100624.69;4971618;28;20117;-61
2022/03/08 01:01:45;;;;;;;20.85;10.18;;;;;;;0.71;65.96;100636.22;4971695;28;20394;-60
2022/03/08 01:04:11;;;;;;;19.88;10.40;;;;;;;0.73;65.85;100639.72;4972064;28;20031;-60
2022/03/08 01:06:36;;;;;;;22.20;10.52;;;;;;;0.72;66.11;100637.97;4971396;28;20047;-60
2022/03/08 01:09:03;;;;;;;15.23;8.82;;;;;;;0.74;66.34;100633.66;4970882;28;20038;-60
2022/03/08 01:11:28;;;;;;;21.50;11.55;;;;;;;0.77;65.47;100636.31;4986368;28;20038;-60
2022/03/08 01:13:54;;;;;;;20.92;10.75;;;;;;;0.81;65.24;100640.72;4971424;28;20023;-61
2022/03/08 01:16:20;;;;;;;20.75;10.55;;;;;;;0.81;64.42;100633.75;4971363;28;20486;-60
2022/03/08 01:18:53;;;;;;;20.13;10.23;;;;;;;0.81;64.07;100645.97;5121286;27;20161;-60
2022/03/08 01:21:18;;;;;;;21.65;11.80;;;;;;;0.83;62.96;100631.16;5106391;28;20425;-61
2022/03/08 01:23:43;;;;;;;19.45;11.18;;;;;;;0.82;62.89;100632.03;5089230;28;20035;-61
2022/03/08 01:26:09;;;;;;;14.50;8.60;;;;;;;0.82;62.87;100629.41;5087452;28;20035;-61
2022/03/08 01:28:35;;;;;;;18.48;10.55;;;;;;;0.80;63.57;100626.78;5086779;28;20040;-61
2022/03/08 01:31:01;;;;;;;21.98;11.23;;;;;;;0.80;62.71;100621.53;5086574;28;20024;-61
2022/03/08 01:33:27;;;;;;;18.50;10.68;;;;;;;0.78;62.76;100622.34;5086503;28;20162;-61
2022/03/08 01:35:54;;;;;;;21.15;10.75;;;;;;;0.85;62.99;100609.41;5086299;28;20130;-61
2022/03/08 01:38:19;;;;;;;17.27;9.70;;;;;;;0.84;61.94;100605.00;5092703;28;20100;-61
2022/03/08 01:40:45;;;;;;;20.48;9.90;;;;;;;0.74;61.20;100607.47;5105882;28;20023;-61
2022/03/08 01:43:11;;;;;;;21.02;10.10;;;;;;;0.54;61.98;100573.13;5105661;28;20164;-61
2022/03/08 01:45:36;;;;;;;19.15;9.95;;;;;;;0.67;62.19;100609.13;5107035;28;20028;-61
2022/03/08 01:48:02;;;;;;;20.17;10.05;;;;;;;0.66;62.11;100601.25;5106661;28;20019;-61
2022/03/08 01:50:27;;;;;;;19.63;10.85;;;;;;;0.63;62.29;100598.53;5106071;28;20035;-61
2022/03/08 01:52:53;;;;;;;19.02;9.65;;;;;;;0.53;61.82;100594.03;5096764;28;20028;-61
2022/03/08 01:55:20;;;;;;;18.70;9.93;;;;;;;0.48;62.79;100593.09;5101220;28;20184;-61
2022/03/08 01:57:49;;;;;;;23.02;10.18;;;;;;;0.26;62.90;100572.63;5105920;28;20028;-61
2022/03/08 02:00:20;;;;;;;18.88;10.02;;;;;;;0.29;62.77;100583.13;5106113;28;20038;-61
2022/03/08 02:02:46;;;;;;;17.77;9.75;;;;;;;0.35;63.15;100583.25;5106245;28;20038;-61
2022/03/08 02:05:12;;;;;;;19.00;10.30;;;;;;;0.32;63.29;100581.47;5106860;28;20463;-61
2022/03/08 02:07:37;;;;;;;20.80;9.15;;;;;;;0.30;64.13;100585.78;5106820;28;20043;-61
2022/03/08 02:10:05;;;;;;;21.80;10.18;;;;;;;0.31;64.07;100576.22;5085731;28;20027;-61
2022/03/08 02:12:31;;;;;;;20.95;11.40;;;;;;;0.32;63.59;100577.97;5088214;28;20035;-61
2022/03/08 02:14:57;;;;;;;21.98;9.93;;;;;;;0.23;63.53;100572.59;5086170;28;20020;-61
2022/03/08 02:17:22;;;;;;;18.70;10.20;;;;;;;0.10;63.78;100570.63;5093479;28;20487;-61
2022/03/08 02:19:47;;;;;;;20.27;9.43;;;;;;;-0.02;64.32;100566.91;5105972;28;20514;-61
2022/03/08 02:22:13;;;;;;;19.23;11.25;;;;;;;-0.01;65.42;100567.78;5105845;28;20432;-61
2022/03/08 02:24:38;;;;;;;22.15;9.68;;;;;;;-0.11;65.81;100566.75;5106264;28;20016;-60
2022/03/08 02:27:04;;;;;;;16.08;9.15;;;;;;;-0.11;66.16;100571.09;5106088;28;20034;-61
2022/03/08 02:29:29;;;;;;;21.92;9.43;;;;;;;-0.18;66.36;100564.88;5096223;28;20024;-61
2022/03/08 02:31:56;;;;;;;22.27;10.00;;;;;;;-0.23;66.15;100548.22;5092054;28;20100;-61
2022/03/08 02:34:21;;;;;;;19.33;10.32;;;;;;;-0.23;66.28;100556.06;5092202;28;20085;-61
2022/03/08 02:37:06;;;;;;;19.77;9.02;;;;;;;-0.16;66.57;100557.03;5092449;28;20036;-61
2022/03/08 02:39:31;;;;;;;15.18;8.63;;;;;;;-0.06;66.76;100562.47;5091718;28;20035;-60
2022/03/08 02:41:57;;;;;;;17.25;8.57;;;;;;;0.04;66.77;100560.91;5092067;28;20031;-61
2022/03/08 02:44:22;;;;;;;24.55;11.30;;;;;;;0.14;66.61;100556.72;5091763;28;20028;-61
2022/03/08 02:46:48;;;;;;;21.15;9.65;;;;;;;0.12;66.61;100554.06;5092237;28;20027;-61
2022/03/08 02:49:13;;;;;;;21.02;10.20;;;;;;;0.08;67.27;100552.28;5091567;28;20020;-61
2022/03/08 02:51:39;;;;;;;17.20;9.98;;;;;;;0.12;67.41;100553.19;5092405;28;20035;-61
2022/03/08 02:54:04;;;;;;;18.58;9.73;;;;;;;0.10;67.55;100549.69;5091690;28;20024;-61
2022/03/08 02:56:30;;;;;;;25.23;10.57;;;;;;;0.17;66.87;100551.53;5091971;28;20054;-61
2022/03/08 02:58:55;;;;;;;19.92;10.48;;;;;;;0.21;66.66;100543.78;5091193;28;20127;-61
2022/03/08 03:01:21;;;;;;;18.60;9.43;;;;;;;0.30;65.21;100538.69;5091917;28;20024;-61
2022/03/08 03:03:47;;;;;;;20.25;10.38;;;;;;;0.38;65.69;100536.22;5091670;28;20074;-60
2022/03/08 03:06:12;;;;;;;15.07;8.82;;;;;;;0.42;63.85;100538.00;5091892;28;20026;-61
2022/03/08 03:08:37;;;;;;;23.85;10.57;;;;;;;0.37;63.26;100540.56;5100408;28;20495;-61
2022/03/08 03:11:03;;;;;;;18.35;9.55;;;;;;;0.37;63.61;100534.44;5104095;28;20082;-61
2022/03/08 03:13:28;;;;;;;20.70;9.43;;;;;;;0.33;63.90;100538.75;5091460;28;20086;-61
2022/03/08 03:15:54;;;;;;;18.60;10.23;;;;;;;0.37;64.39;100529.22;5091456;28;20036;-61
2022/03/08 03:18:19;;;;;;;18.92;10.40;;;;;;;0.07;64.52;100481.66;5096364;28;20394;-61
2022/03/08 03:20:45;;;;;;;19.85;10.02;;;;;;;0.25;65.46;100529.03;5100693;28;20059;-61
2022/03/08 03:23:11;;;;;;;23.02;11.43;;;;;;;0.24;66.34;100543.84;5100269;28;20023;-61
2022/03/08 03:25:36;;;;;;;20.67;8.77;;;;;;;0.22;67.31;100544.66;5091722;28;20107;-61
2022/03/08 03:28:02;;;;;;;21.42;10.38;;;;;;;0.22;67.28;100539.41;5091328;28;20107;-61
2022/03/08 03:30:27;;;;;;;18.83;10.23;;;;;;;0.24;66.77;100548.19;5092466;28;20471;-61
2022/03/08 03:32:53;;;;;;;19.27;8.48;;;;;;;0.28;66.92;100544.78;5089902;28;20028;-61
2022/03/08 03:35:19;;;;;;;19.83;10.60;;;;;;;0.27;65.96;100538.66;5091228;28;20479;-61
2022/03/08 03:37:45;;;;;;;20.13;10.05;;;;;;;0.21;65.96;100540.28;5091420;28;20032;-61
2022/03/08 03:40:11;;;;;;;25.75;9.63;;;;;;;0.25;66.14;100531.66;5090291;28;20032;-61
2022/03/08 03:42:38;;;;;;;20.35;10.73;;;;;;;0.25;65.53;100526.41;5090814;28;20383;-61
2022/03/08 03:45:05;;;;;;;21.60;9.52;;;;;;;0.26;65.05;100530.78;5091285;28;20054;-61
2022/03/08 03:47:30;;;;;;;18.33;9.52;;;;;;;0.27;64.76;100532.53;5090986;28;20020;-61
2022/03/08 03:49:56;;;;;;;17.50;8.90;;;;;;;0.24;64.69;100535.09;5090565;28;20023;-62
2022/03/08 03:52:21;;;;;;;18.27;10.00;;;;;;;0.27;64.71;100525.56;5093308;28;20027;-61
2022/03/08 03:54:46;;;;;;;18.58;9.35;;;;;;;0.23;64.60;100522.88;5090980;28;20395;-61
2022/03/08 03:57:12;;;;;;;19.50;10.52;;;;;;;0.22;65.08;100529.84;5091340;28;20099;-61
2022/03/08 03:59:39;;;;;;;19.13;9.60;;;;;;;0.25;65.17;100531.66;5090843;28;20031;-61
2022/03/08 04:02:05;;;;;;;20.02;9.88;;;;;;;0.25;65.31;100531.66;5090667;28;20027;-61
2022/03/08 04:04:30;;;;;;;17.70;9.10;;;;;;;0.32;64.66;100530.88;5098104;28;20015;-61
2022/03/08 04:06:56;;;;;;;16.65;8.45;;;;;;;0.34;63.23;100537.00;5090870;28;20180;-61
2022/03/08 04:09:21;;;;;;;22.77;10.32;;;;;;;0.33;63.96;100537.88;5105109;28;20032;-61
2022/03/08 04:11:46;;;;;;;18.77;9.77;;;;;;;0.28;64.52;100547.38;5111052;28;20603;-61
2022/03/08 04:14:12;;;;;;;16.60;9.18;;;;;;;0.24;65.80;100540.34;5110659;28;20032;-61
2022/03/08 04:16:38;;;;;;;19.58;8.70;;;;;;;0.20;65.43;100539.41;5110428;28;20074;-61
2022/03/08 04:19:03;;;;;;;18.05;9.23;;;;;;;0.16;66.25;100534.97;5110536;28;20023;-61
2022/03/08 04:21:29;;;;;;;17.45;9.30;;;;;;;0.12;66.61;100533.16;5110972;28;20023;-61
2022/03/08 04:23:54;;;;;;;16.98;9.50;;;;;;;0.11;67.53;100534.03;5092693;28;20043;-62
2022/03/08 04:26:20;;;;;;;19.35;9.10;;;;;;;0.13;66.83;100534.06;5090552;28;20020;-61
2022/03/08 04:28:45;;;;;;;18.73;10.05;;;;;;;0.14;65.53;100538.41;5089875;28;20020;-61
2022/03/08 04:31:10;;;;;;;20.55;8.82;;;;;;;0.10;66.55;100534.84;5090026;28;20031;-61
2022/03/08 04:33:36;;;;;;;19.90;10.43;;;;;;;0.11;66.89;100533.13;5090081;28;20333;-61
2022/03/08 04:36:03;;;;;;;15.60;8.75;;;;;;;0.13;65.92;100534.06;5090013;28;20081;-61
2022/03/08 04:38:28;;;;;;;16.27;8.80;;;;;;;0.11;65.95;100535.75;5090338;28;20024;-61
2022/03/08 04:40:54;;;;;;;20.35;9.00;;;;;;;0.11;65.19;100540.97;5089643;28;20539;-61
2022/03/08 04:43:19;;;;;;;21.70;10.63;;;;;;;0.10;64.66;100534.84;5089488;28;20480;-61
2022/03/08 04:45:44;;;;;;;20.85;9.10;;;;;;;0.11;64.13;100533.13;5089883;28;20186;-61
2022/03/08 04:48:10;;;;;;;20.38;8.75;;;;;;;0.14;62.71;100530.56;5090147;28;20490;-61
2022/03/08 04:50:36;;;;;;;21.15;8.63;;;;;;;0.13;62.11;100537.56;5089760;28;20016;-61
2022/03/08 04:53:01;;;;;;;17.17;8.68;;;;;;;0.16;62.57;100536.72;5089450;28;21069;-61
2022/03/08 04:55:27;;;;;;;20.25;9.25;;;;;;;0.19;62.29;100534.13;5089736;28;20413;-61
2022/03/08 04:57:52;;;;;;;16.48;8.10;;;;;;;0.21;61.98;100542.91;5089103;28;20028;-61
2022/03/08 05:00:17;;;;;;;17.95;8.95;;;;;;;0.20;62.72;100546.38;5089289;28;20039;-61
2022/03/08 05:02:45;;;;;;;15.82;9.20;;;;;;;0.18;62.05;100555.94;5089544;28;20035;-61
2022/03/08 05:05:12;;;;;;;14.75;9.05;;;;;;;0.15;61.73;100545.41;5089992;28;20115;-61
2022/03/08 05:07:38;;;;;;;19.23;8.45;;;;;;;0.14;62.42;100546.25;5090123;28;20028;-61
2022/03/08 05:10:09;;;;;;;22.10;9.68;;;;;;;0.08;62.70;100547.06;5089148;28;20510;-61
2022/03/08 05:12:35;;;;;;;17.63;8.45;;;;;;;0.11;62.64;100543.59;5091727;28;20060;-61
2022/03/08 05:15:01;;;;;;;19.25;9.02;;;;;;;0.04;63.34;100542.59;5089189;28;20028;-61
2022/03/08 05:17:26;;;;;;;25.27;10.07;;;;;;;-0.04;63.68;100547.72;5098904;28;20046;-61
2022/03/08 05:19:52;;;;;;;21.83;9.35;;;;;;;-0.13;63.19;100523.13;5109487;28;20484;-61
2022/03/08 05:22:18;;;;;;;16.45;8.73;;;;;;;-0.06;64.79;100538.06;5106341;28;20028;-61
2022/03/08 05:24:43;;;;;;;21.17;9.55;;;;;;;-0.05;63.74;100535.47;5105420;28;20050;-61
2022/03/08 05:27:10;;;;;;;17.88;9.27;;;;;;;-0.08;64.21;100545.88;5109981;28;20035;-61
2022/03/08 05:29:36;;;;;;;20.13;9.60;;;;;;;-0.11;65.29;100537.09;5109132;28;20153;-61
2022/03/08 05:32:01;;;;;;;19.33;9.35;;;;;;;-0.08;65.06;100539.75;5109782;28;20055;-61
2022/03/08 05:34:27;;;;;;;34.97;9.93;;;;;;;-0.14;64.69;100543.16;5108590;28;20518;-61
2022/03/08 05:36:53;;;;;;;13.82;8.90;;;;;;;-0.18;65.54;100548.28;5108637;28;20024;-61
2022/03/08 05:39:18;;;;;;;19.90;8.77;;;;;;;-0.29;66.40;100549.81;5109452;28;20043;-61
2022/03/08 05:41:44;;;;;;;19.70;8.43;;;;;;;-0.29;66.53;100542.00;5109363;28;20023;-61
2022/03/08 05:44:09;;;;;;;19.42;8.27;;;;;;;-0.33;67.78;100537.56;5109471;28;20102;-61
2022/03/08 05:46:35;;;;;;;22.42;9.68;;;;;;;-0.35;67.36;100540.16;5109842;28;20151;-61
2022/03/08 05:49:03;;;;;;;19.25;10.05;;;;;;;-0.27;66.12;100538.56;5109179;28;20402;-61
2022/03/08 05:51:29;;;;;;;17.25;8.70;;;;;;;-0.22;65.62;100538.66;5091317;28;20089;-61
2022/03/08 05:53:54;;;;;;;26.08;9.25;;;;;;;-0.16;65.41;100536.13;5090375;28;20036;-61
2022/03/08 05:56:20;;;;;;;22.20;10.20;;;;;;;-0.18;64.16;100540.44;5095179;28;20522;-61
2022/03/08 05:58:45;;;;;;;15.65;7.57;;;;;;;-0.06;63.40;100533.72;5108906;28;20035;-61
2022/03/08 06:01:11;;;;;;;19.23;9.40;;;;;;;-0.02;62.28;100539.91;5106189;28;20027;-61
2022/03/08 06:03:37;;;;;;;19.73;8.77;;;;;;;0.05;62.88;100538.28;5109494;28;20027;-61
2022/03/08 06:06:02;;;;;;;18.15;8.60;;;;;;;0.07;62.24;100539.19;5113372;28;20034;-61
2022/03/08 06:08:28;;;;;;;16.10;9.27;;;;;;;0.07;62.36;100534.81;5106178;28;20031;-61
2022/03/08 06:10:53;;;;;;;17.42;9.02;;;;;;;0.08;62.17;100531.38;5092205;28;20036;-61
2022/03/08 06:13:19;;;;;;;15.02;8.35;;;;;;;0.21;62.74;100525.47;5092615;28;20024;-62
2022/03/08 06:15:44;;;;;;;16.38;8.73;;;;;;;0.62;62.30;100527.03;5092736;28;20938;-61
2022/03/08 06:18:10;;;;;;;16.50;9.90;;;;;;;1.19;60.60;100529.56;5092787;28;20047;-61
2022/03/08 06:20:35;;;;;;;27.98;12.38;;;;;;;1.71;57.66;100528.44;5092325;28;20024;-61
2022/03/08 06:23:01;;;;;;;29.90;13.93;;;;;;;2.08;55.96;100533.19;5092193;28;20085;-61
2022/03/08 06:25:26;;;;;;;20.90;9.68;;;;;;;2.58;55.65;100535.41;5092120;28;20023;-61
2022/03/08 06:27:52;;;;;;;20.10;8.77;;;;;;;4.17;52.65;100534.31;5092788;28;20016;-61
2022/03/08 06:30:17;;;;;;;18.75;7.78;;;;;;;5.96;48.95;100515.50;5092180;28;20453;-61
2022/03/08 06:32:42;;;;;;;16.92;7.43;;;;;;;7.41;45.70;100514.16;5092224;28;20051;-61
2022/03/08 06:35:08;;;;;;;14.02;8.43;;;;;;;8.88;41.73;100521.69;5092535;28;20497;-61
2022/03/08 06:37:34;;;;;;;16.60;8.55;;;;;;;9.88;39.14;100524.09;5092242;28;20074;-61
2022/03/08 06:39:59;;;;;;;14.65;7.97;;;;;;;10.35;37.60;100518.59;5091754;28;20131;-61
2022/03/08 06:42:25;;;;;;;14.30;8.00;;;;;;;10.27;37.21;100522.34;5092016;28;20165;-61
2022/03/08 06:44:51;;;;;;;17.23;9.27;;;;;;;8.90;38.25;100530.47;5092243;28;20028;-61
2022/03/08 06:47:16;;;;;;;17.67;8.82;;;;;;;7.46;40.40;100533.50;5093750;27;20016;-61
2022/03/08 06:49:42;;;;;;;17.13;7.97;;;;;;;8.12;41.43;100537.03;5101492;28;20513;-61
2022/03/08 06:52:08;;;;;;;13.75;7.13;;;;;;;9.89;38.88;100538.25;5109742;28;20031;-61
2022/03/08 06:54:35;;;;;;;15.65;7.40;;;;;;;11.53;36.05;100523.50;5092103;28;20039;-62
2022/03/08 06:57:01;;;;;;;12.85;7.07;;;;;;;12.76;33.36;100535.66;5092006;28;20217;-61
2022/03/08 06:59:26;;;;;;;12.07;7.45;;;;;;;13.84;32.57;100538.91;5091479;28;20107;-61
2022/03/08 07:01:52;;;;;;;12.55;6.32;;;;;;;14.31;31.41;100535.34;5091547;28;20109;-61
2022/03/08 07:04:17;;;;;;;15.88;7.10;;;;;;;15.20;29.87;100534.28;5090289;28;20031;-61
2022/03/08 07:06:43;;;;;;;11.27;6.18;;;;;;;15.82;29.39;100539.56;5089969;28;20035;-61
2022/03/08 07:09:09;;;;;;;12.05;6.88;;;;;;;16.49;28.71;100542.69;5098797;28;20020;-61
2022/03/08 07:11:36;;;;;;;12.07;6.70;;;;;;;17.09;26.49;100550.38;5091767;28;20024;-61
2022/03/08 07:14:02;;;;;;;9.77;5.63;;;;;;;17.63;26.29;100552.06;5093788;28;20455;-61
2022/03/08 07:16:27;;;;;;;10.57;6.10;;;;;;;17.82;26.11;100559.09;5091308;28;20043;-61
2022/03/08 07:18:53;;;;;;;11.25;5.80;;;;;;;18.12;26.04;100519.72;5091009;28;20028;-61
2022/03/08 07:21:18;;;;;;;12.25;7.05;;;;;;;18.94;24.46;100568.97;5094147;28;20080;-61
2022/03/08 07:23:44;;;;;;;10.52;6.75;;;;;;;19.16;24.92;100564.91;5090998;28;20107;-61
2022/03/08 07:26:09;;;;;;;11.45;6.72;;;;;;;19.11;24.50;100566.16;5090290;28;20026;-61
2022/03/08 07:28:35;;;;;;;13.88;6.65;;;;;;;18.56;24.15;100567.59;5089430;28;20115;-61
2022/03/08 07:31:01;;;;;;;14.45;7.10;;;;;;;18.57;25.29;100570.19;5090968;28;20028;-61
2022/03/08 07:33:26;;;;;;;12.88;6.22;;;;;;;18.84;24.45;100573.16;5090949;28;20077;-61
2022/03/08 07:35:52;;;;;;;12.63;6.80;;;;;;;19.08;24.12;100574.41;5091296;28;20741;-61
2022/03/08 07:38:17;;;;;;;12.70;6.68;;;;;;;18.75;24.16;100574.53;5091008;28;20028;-61
2022/03/08 07:40:43;;;;;;;11.63;7.05;;;;;;;19.17;25.00;100563.97;5091082;28;20031;-61
2022/03/08 07:43:08;;;;;;;12.65;6.22;;;;;;;19.48;23.79;100557.63;5091032;28;20016;-61
2022/03/08 07:45:35;;;;;;;10.75;6.05;;;;;;;20.05;23.67;100561.31;5091151;28;20076;-61
2022/03/08 07:48:01;;;;;;;10.55;5.65;;;;;;;19.51;24.31;100546.66;5093469;28;20536;-61
2022/03/08 07:50:27;;;;;;;11.57;6.88;;;;;;;20.03;23.41;100569.47;5090660;28;20382;-61
2022/03/08 07:52:53;;;;;;;10.65;5.93;;;;;;;19.83;22.52;100564.47;5090464;28;20052;-61
2022/03/08 07:55:18;;;;;;;11.95;6.38;;;;;;;20.01;22.70;100565.16;5091054;28;20600;-61
2022/03/08 07:57:44;;;;;;;10.20;5.90;;;;;;;20.19;23.48;100554.09;5090554;28;20028;-61
2022/03/08 08:00:10;;;;;;;11.60;5.85;;;;;;;20.30;22.40;100550.69;5090420;28;20383;-62
2022/03/08 08:02:37;;;;;;;11.95;7.10;;;;;;;20.47;22.38;100559.47;5090428;28;20020;-62
2022/03/08 08:05:03;;;;;;;10.75;6.28;;;;;;;20.59;22.43;100565.91;5093303;28;20023;-62
2022/03/08 08:07:28;;;;;;;13.45;6.00;;;;;;;20.72;22.25;100575.81;5092461;28;20375;-62
2022/03/08 08:09:53;;;;;;;10.63;5.43;;;;;;;20.59;22.54;100580.28;5109735;28;20020;-62
2022/03/08 08:12:19;;;;;;;12.65;7.55;;;;;;;20.53;22.38;100580.69;5110797;28;20114;-62
2022/03/08 08:14:44;;;;;;;9.65;5.65;;;;;;;20.40;22.81;100574.34;5110468;28;20028;-62
2022/03/08 08:17:10;;;;;;;12.07;6.18;;;;;;;20.59;23.00;100571.31;5110552;28;20111;-62
2022/03/08 08:19:35;;;;;;;12.65;5.88;;;;;;;20.25;22.73;100572.59;5109297;28;20035;-62
2022/03/08 08:22:01;;;;;;;11.25;6.85;;;;;;;19.90;23.33;100565.78;5108905;28;20775;-62
2022/03/08 08:24:26;;;;;;;15.35;6.95;;;;;;;19.34;22.95;100581.91;5090444;28;20035;-62
2022/03/08 08:26:52;;;;;;;12.43;6.15;;;;;;;18.75;23.89;100589.84;5089646;28;20128;-62
2022/03/08 08:29:17;;;;;;;10.82;6.55;;;;;;;18.11;24.12;100585.31;5089873;28;20024;-62
2022/03/08 08:31:42;;;;;;;10.50;6.50;;;;;;;17.75;24.64;100587.28;5090203;28;20031;-62
2022/03/08 08:34:08;;;;;;;10.35;5.97;;;;;;;18.13;25.34;100569.94;5090271;28;20020;-62
2022/03/08 08:36:34;;;;;;;12.15;6.28;;;;;;;18.41;24.84;100568.44;5090008;28;20095;-62
2022/03/08 08:38:59;;;;;;;10.27;6.13;;;;;;;17.48;24.98;100566.34;5089737;28;20031;-62
2022/03/08 08:41:25;;;;;;;10.25;6.70;;;;;;;17.60;25.19;100568.38;5090505;28;20034;-62
2022/03/08 08:43:51;;;;;;;9.20;6.00;;;;;;;17.87;25.10;100570.50;5088630;28;20020;-62
2022/03/08 08:46:16;;;;;;;12.10;5.90;;;;;;;17.91;25.20;100568.47;5089996;28;20055;-62
2022/03/08 08:48:41;;;;;;;12.65;5.95;;;;;;;17.29;25.10;100566.38;5090017;28;20042;-62
2022/03/08 08:51:07;;;;;;;11.20;6.07;;;;;;;17.04;25.25;100573.94;5089831;28;20031;-62
2022/03/08 08:53:33;;;;;;;8.93;5.70;;;;;;;16.61;25.92;100569.81;5089725;28;20023;-62
2022/03/08 08:55:58;;;;;;;10.18;6.05;;;;;;;16.69;26.27;100566.72;5090166;28;20067;-62
2022/03/08 08:58:24;;;;;;;9.52;5.10;;;;;;;16.83;25.27;100569.63;5089611;28;20510;-62
2022/03/08 09:00:49;;;;;;;9.07;5.38;;;;;;;17.07;24.64;100557.66;5089282;28;20104;-62
2022/03/08 09:03:16;;;;;;;14.27;6.07;;;;;;;16.63;25.26;100554.50;5089703;28;20383;-62
2022/03/08 09:05:45;;;;;;;10.48;5.13;;;;;;;16.66;25.50;100554.34;5092332;28;20023;-62
2022/03/08 09:08:12;;;;;;;8.20;5.38;;;;;;;16.83;25.56;100550.81;5090244;28;20114;-62
2022/03/08 09:10:38;;;;;;;9.05;5.03;;;;;;;16.69;25.87;100559.56;5090093;28;20016;-62
2022/03/08 09:13:05;;;;;;;9.35;5.65;;;;;;;16.32;24.52;100547.94;5089316;28;20083;-62
2022/03/08 09:15:32;;;;;;;8.32;5.18;;;;;;;16.38;25.41;100551.22;5101785;28;20176;-62
2022/03/08 09:17:58;;;;;;;8.75;4.97;;;;;;;16.43;26.42;100554.53;5109744;28;20047;-62
2022/03/08 09:20:25;;;;;;;9.35;6.03;;;;;;;15.43;25.85;100546.72;5109778;28;20042;-62
2022/03/08 09:22:53;;;;;;;10.85;5.95;;;;;;;15.92;25.25;100545.38;5100802;28;20028;-62
2022/03/08 09:25:19;;;;;;;8.63;5.00;;;;;;;15.74;25.25;100542.59;5089700;28;20055;-62
2022/03/08 09:27:44;;;;;;;9.00;5.45;;;;;;;15.66;27.01;100525.09;5091635;28;20020;-62
2022/03/08 09:30:10;;;;;;;9.98;5.65;;;;;;;15.72;25.79;100536.44;5089438;28;20386;-62
2022/03/08 09:32:36;;;;;;;11.77;5.80;;;;;;;15.55;27.50;100532.78;5089207;28;20055;-62
2022/03/08 09:35:03;;;;;;;7.85;4.95;;;;;;;15.55;26.14;100528.25;5089459;28;20827;-62
2022/03/08 09:37:28;;;;;;;10.20;5.40;;;;;;;15.80;25.91;100528.91;5089317;28;20052;-62
2022/03/08 09:39:54;;;;;;;9.85;5.38;;;;;;;15.83;26.61;100531.44;5090910;28;20022;-62
2022/03/08 09:42:20;;;;;;;8.90;5.10;;;;;;;16.04;26.34;100534.97;5093156;28;20027;-62
2022/03/08 09:44:48;;;;;;;7.70;4.53;;;;;;;16.38;25.49;100528.84;5093603;28;20437;-62
2022/03/08 09:47:14;;;;;;;9.68;5.35;;;;;;;16.60;26.29;100534.97;5096134;28;20020;-62
2022/03/08 09:49:39;;;;;;;9.35;4.85;;;;;;;16.79;25.87;100530.41;5093505;28;20030;-62
2022/03/08 09:52:05;;;;;;;9.90;5.05;;;;;;;16.91;26.61;100541.44;5093143;28;20040;-62
2022/03/08 09:54:30;;;;;;;9.48;4.82;;;;;;;17.21;25.94;100536.31;5093373;28;20383;-62
2022/03/08 09:56:56;;;;;;;8.27;4.95;;;;;;;17.03;24.28;100529.19;5093023;28;20089;-62
2022/03/08 09:59:22;;;;;;;8.75;4.90;;;;;;;17.31;24.35;100534.91;5092716;28;20031;-62
2022/03/08 10:01:48;;;;;;;7.22;3.95;;;;;;;17.58;23.84;100532.59;5095062;28;20434;-62
2022/03/08 10:04:18;;;;;;;7.93;4.97;;;;;;;17.76;25.49;100524.44;5091915;28;20044;-62
2022/03/08 10:06:46;;;;;;;9.18;4.95;;;;;;;17.87;24.46;100529.25;5093336;28;20032;-62
2022/03/08 10:09:11;;;;;;;9.60;4.65;;;;;;;17.55;24.47;100525.56;5105933;28;20023;-62
2022/03/08 10:11:38;;;;;;;8.85;4.80;;;;;;;17.74;25.03;100530.84;5111464;28;20023;-62
2022/03/08 10:14:04;;;;;;;8.52;5.22;;;;;;;18.16;24.21;100529.38;5094471;28;20387;-62
2022/03/08 10:16:41;;;;;;;8.13;4.80;;;;;;;18.45;24.73;100521.53;5094768;28;20024;-62
2022/03/08 10:19:09;;;;;;;6.88;4.13;;;;;;;18.94;24.09;100518.63;5092435;28;20052;-62
2022/03/08 10:21:43;;;;;;;8.48;4.85;;;;;;;18.87;23.43;100513.66;5092956;28;20024;-62
2022/03/08 10:24:28;;;;;;;11.15;5.65;;;;;;;18.75;23.32;100520.63;5092168;28;20081;-62
2022/03/08 10:26:55;;;;;;;8.70;4.45;;;;;;;18.87;23.71;100510.97;5092293;28;20034;-62
2022/03/08 10:29:26;;;;;;;9.07;5.50;;;;;;;18.86;23.69;100509.25;5091301;28;20429;-62
2022/03/08 10:32:16;;;;;;;7.57;5.32;;;;;;;19.05;23.45;100508.06;5092872;28;20078;-62
2022/03/08 10:34:43;;;;;;;7.82;4.68;;;;;;;18.05;24.47;100510.28;5092743;28;20757;-62
2022/03/08 10:37:19;;;;;;;9.65;5.20;;;;;;;18.37;23.85;100512.03;5092604;28;20035;-62
2022/03/08 10:39:54;;;;;;;9.70;5.15;;;;;;;18.77;24.23;100507.06;5092053;28;20032;-62
2022/03/08 10:42:25;;;;;;;9.20;4.95;;;;;;;18.90;24.07;100508.09;5092473;28;20031;-62
2022/03/08 10:44:53;;;;;;;9.35;5.20;;;;;;;19.05;24.08;100507.19;5092738;28;20019;-61
2022/03/08 10:47:18;;;;;;;8.82;5.10;;;;;;;18.87;23.68;100503.75;5093067;28;20024;-61
2022/03/08 10:50:03;;;;;;;8.20;5.20;;;;;;;19.05;24.50;100502.66;5091116;28;20107;-62
2022/03/08 10:52:33;;;;;;;7.93;5.22;;;;;;;19.25;23.43;100504.16;5092099;28;20725;-61
2022/03/08 10:55:12;;;;;;;8.82;4.55;;;;;;;19.19;23.24;100501.84;5092248;28;20478;-61
2022/03/08 10:57:39;;;;;;;8.77;4.97;;;;;;;19.04;22.96;100508.16;5092357;28;20111;-61
2022/03/08 11:00:11;;;;;;;8.90;5.57;;;;;;;18.76;24.41;100498.13;5090554;28;20020;-61
2022/03/08 11:02:47;;;;;;;9.60;4.93;;;;;;;18.85;23.37;100505.66;5091640;28;20475;-61
2022/03/08 11:05:13;;;;;;;8.88;4.95;;;;;;;19.15;24.44;100497.59;5091674;28;20475;-61
2022/03/08 11:07:39;;;;;;;9.88;5.45;;;;;;;19.02;24.05;100496.59;5092324;28;20492;-61
2022/03/08 11:10:08;;;;;;;7.90;4.75;;;;;;;19.27;23.77;100491.47;5104481;28;20050;-61
2022/03/08 11:12:33;;;;;;;9.00;5.82;;;;;;;19.12;23.64;100495.06;5107028;28;20035;-61
2022/03/08 11:14:59;;;;;;;8.15;5.03;;;;;;;18.69;23.90;100495.88;5111927;28;20168;-61
2022/03/08 11:17:25;;;;;;;12.93;5.50;;;;;;;18.78;24.64;100492.66;5111872;28;20043;-61